sensor_id;sensor_type;location;lat;lon;timestamp;P1;durP1;ratioP1;P2;durP2;ratioP2
15104;SDS011;7653;48.994;9.212;2023-06-26T00:01:30;6.93;;;5.33;;
15104;SDS011;7653;48.994;9.212;2023-06-26T00:03:56;7.03;;;5.37;;
15104;SDS011;7653;48.994;9.212;2023-06-26T00:06:24;6.40;;;5.80;;
15104;SDS011;7653;48.994;9.212;2023-06-26T00:08:53;6.10;;;5.33;;
15104;SDS011;7653;48.994;9.212;2023-06-26T00:11:20;6.50;;;5.63;;
15104;SDS011;7653;48.994;9.212;2023-06-26T00:13:46;6.60;;;5.50;;
15104;SDS011;7653;48.994;9.212;2023-06-26T00:16:12;8.00;;;5.63;;
15104;SDS011;7653;48.994;9.212;2023-06-26T00:18:37;6.77;;;5.93;;
15104;SDS011;7653;48.994;9.212;2023-06-26T00:21:03;5.93;;;5.33;;
15104;SDS011;7653;48.994;9.212;2023-06-26T00:23:29;6.00;;;5.40;;
15104;SDS011;7653;48.994;9.212;2023-06-26T00:25:56;6.97;;;5.50;;
15104;SDS011;7653;48.994;9.212;2023-06-26T00:28:21;5.87;;;5.27;;
15104;SDS011;7653;48.994;9.212;2023-06-26T00:30:47;6.40;;;5.40;;
15104;SDS011;7653;48.994;9.212;2023-06-26T00:33:13;7.53;;;6.00;;
15104;SDS011;7653;48.994;9.212;2023-06-26T00:35:38;6.30;;;5.70;;
15104;SDS011;7653;48.994;9.212;2023-06-26T00:38:04;7.10;;;5.70;;
15104;SDS011;7653;48.994;9.212;2023-06-26T00:40:29;6.27;;;5.50;;
15104;SDS011;7653;48.994;9.212;2023-06-26T00:42:55;6.20;;;5.60;;
15104;SDS011;7653;48.994;9.212;2023-06-26T00:45:21;6.77;;;5.43;;
15104;SDS011;7653;48.994;9.212;2023-06-26T00:47:46;6.20;;;5.10;;
15104;SDS011;7653;48.994;9.212;2023-06-26T00:50:12;7.73;;;6.00;;
15104;SDS011;7653;48.994;9.212;2023-06-26T00:52:40;6.63;;;5.57;;
15104;SDS011;7653;48.994;9.212;2023-06-26T00:55:06;6.17;;;4.97;;
15104;SDS011;7653;48.994;9.212;2023-06-26T00:57:32;5.93;;;5.33;;
15104;SDS011;7653;48.994;9.212;2023-06-26T00:59:58;7.03;;;5.67;;
15104;SDS011;7653;48.994;9.212;2023-06-26T01:02:25;7.33;;;5.73;;
15104;SDS011;7653;48.994;9.212;2023-06-26T01:04:58;7.13;;;5.97;;
15104;SDS011;7653;48.994;9.212;2023-06-26T01:07:25;6.43;;;5.70;;
15104;SDS011;7653;48.994;9.212;2023-06-26T01:09:51;6.83;;;5.93;;
15104;SDS011;7653;48.994;9.212;2023-06-26T01:12:17;6.63;;;5.90;;
15104;SDS011;7653;48.994;9.212;2023-06-26T01:14:42;8.37;;;5.80;;
15104;SDS011;7653;48.994;9.212;2023-06-26T01:17:09;7.83;;;5.67;;
15104;SDS011;7653;48.994;9.212;2023-06-26T01:19:39;6.87;;;5.60;;
15104;SDS011;7653;48.994;9.212;2023-06-26T01:25:15;7.53;;;5.53;;
15104;SDS011;7653;48.994;9.212;2023-06-26T01:27:47;8.80;;;5.67;;
15104;SDS011;7653;48.994;9.212;2023-06-26T01:30:15;6.93;;;5.90;;
15104;SDS011;7653;48.994;9.212;2023-06-26T01:32:42;6.97;;;6.03;;
15104;SDS011;7653;48.994;9.212;2023-06-26T01:35:09;6.63;;;5.93;;
15104;SDS011;7653;48.994;9.212;2023-06-26T01:37:35;7.23;;;6.20;;
15104;SDS011;7653;48.994;9.212;2023-06-26T01:40:02;7.07;;;6.37;;
15104;SDS011;7653;48.994;9.212;2023-06-26T01:42:30;6.33;;;5.73;;
15104;SDS011;7653;48.994;9.212;2023-06-26T01:44:57;6.70;;;6.00;;
15104;SDS011;7653;48.994;9.212;2023-06-26T01:47:27;9.50;;;5.73;;
15104;SDS011;7653;48.994;9.212;2023-06-26T01:50:02;7.03;;;5.83;;
15104;SDS011;7653;48.994;9.212;2023-06-26T01:55:08;6.67;;;5.83;;
15104;SDS011;7653;48.994;9.212;2023-06-26T01:57:56;6.27;;;5.67;;
15104;SDS011;7653;48.994;9.212;2023-06-26T02:00:23;6.50;;;5.87;;
15104;SDS011;7653;48.994;9.212;2023-06-26T02:02:51;11.23;;;5.93;;
15104;SDS011;7653;48.994;9.212;2023-06-26T02:05:17;7.50;;;6.70;;
15104;SDS011;7653;48.994;9.212;2023-06-26T02:07:43;7.07;;;5.73;;
15104;SDS011;7653;48.994;9.212;2023-06-26T02:10:09;6.93;;;6.23;;
15104;SDS011;7653;48.994;9.212;2023-06-26T02:12:35;8.50;;;6.50;;
15104;SDS011;7653;48.994;9.212;2023-06-26T02:15:02;6.90;;;6.20;;
15104;SDS011;7653;48.994;9.212;2023-06-26T02:17:28;6.97;;;5.70;;
15104;SDS011;7653;48.994;9.212;2023-06-26T02:19:54;8.10;;;6.33;;
15104;SDS011;7653;48.994;9.212;2023-06-26T02:22:19;7.17;;;6.40;;
15104;SDS011;7653;48.994;9.212;2023-06-26T02:24:45;6.50;;;5.80;;
15104;SDS011;7653;48.994;9.212;2023-06-26T02:27:11;8.13;;;6.33;;
15104;SDS011;7653;48.994;9.212;2023-06-26T02:29:37;6.37;;;5.73;;
15104;SDS011;7653;48.994;9.212;2023-06-26T02:32:03;7.47;;;6.27;;
15104;SDS011;7653;48.994;9.212;2023-06-26T02:34:29;7.47;;;5.83;;
15104;SDS011;7653;48.994;9.212;2023-06-26T02:36:55;7.17;;;5.97;;
15104;SDS011;7653;48.994;9.212;2023-06-26T02:39:21;7.40;;;6.37;;
15104;SDS011;7653;48.994;9.212;2023-06-26T02:41:47;8.00;;;6.43;;
15104;SDS011;7653;48.994;9.212;2023-06-26T02:44:13;6.83;;;6.10;;
15104;SDS011;7653;48.994;9.212;2023-06-26T02:46:39;7.40;;;6.37;;
15104;SDS011;7653;48.994;9.212;2023-06-26T02:49:05;9.57;;;6.27;;
15104;SDS011;7653;48.994;9.212;2023-06-26T02:51:32;7.10;;;6.40;;
15104;SDS011;7653;48.994;9.212;2023-06-26T02:53:58;7.57;;;6.57;;
15104;SDS011;7653;48.994;9.212;2023-06-26T02:56:24;7.23;;;6.53;;
15104;SDS011;7653;48.994;9.212;2023-06-26T02:58:54;7.67;;;6.70;;
15104;SDS011;7653;48.994;9.212;2023-06-26T03:01:23;7.30;;;6.27;;
15104;SDS011;7653;48.994;9.212;2023-06-26T03:03:48;7.93;;;6.83;;
15104;SDS011;7653;48.994;9.212;2023-06-26T03:06:14;7.27;;;6.20;;
15104;SDS011;7653;48.994;9.212;2023-06-26T03:08:40;7.17;;;6.30;;
15104;SDS011;7653;48.994;9.212;2023-06-26T03:11:06;6.93;;;6.20;;
15104;SDS011;7653;48.994;9.212;2023-06-26T03:13:33;8.50;;;6.37;;
15104;SDS011;7653;48.994;9.212;2023-06-26T03:16:00;7.90;;;6.10;;
15104;SDS011;7653;48.994;9.212;2023-06-26T03:18:26;7.27;;;6.40;;
15104;SDS011;7653;48.994;9.212;2023-06-26T03:20:52;8.83;;;5.93;;
15104;SDS011;7653;48.994;9.212;2023-06-26T03:23:21;13.30;;;6.47;;
15104;SDS011;7653;48.994;9.212;2023-06-26T03:25:48;6.60;;;5.90;;
15104;SDS011;7653;48.994;9.212;2023-06-26T03:28:14;9.13;;;6.10;;
15104;SDS011;7653;48.994;9.212;2023-06-26T03:30:40;7.17;;;5.90;;
15104;SDS011;7653;48.994;9.212;2023-06-26T03:33:06;8.00;;;6.47;;
15104;SDS011;7653;48.994;9.212;2023-06-26T03:35:32;6.73;;;5.93;;
15104;SDS011;7653;48.994;9.212;2023-06-26T03:37:58;7.23;;;5.80;;
15104;SDS011;7653;48.994;9.212;2023-06-26T03:40:24;7.27;;;6.10;;
15104;SDS011;7653;48.994;9.212;2023-06-26T03:42:49;7.57;;;6.77;;
15104;SDS011;7653;48.994;9.212;2023-06-26T03:45:15;10.00;;;6.83;;
15104;SDS011;7653;48.994;9.212;2023-06-26T03:47:41;7.47;;;6.67;;
15104;SDS011;7653;48.994;9.212;2023-06-26T03:50:06;8.13;;;5.90;;
15104;SDS011;7653;48.994;9.212;2023-06-26T03:52:32;9.37;;;6.83;;
15104;SDS011;7653;48.994;9.212;2023-06-26T03:54:58;7.43;;;6.53;;
15104;SDS011;7653;48.994;9.212;2023-06-26T03:57:24;7.50;;;6.60;;
15104;SDS011;7653;48.994;9.212;2023-06-26T03:59:50;8.97;;;6.53;;
15104;SDS011;7653;48.994;9.212;2023-06-26T04:02:16;7.93;;;6.67;;
15104;SDS011;7653;48.994;9.212;2023-06-26T04:04:42;9.03;;;6.63;;
15104;SDS011;7653;48.994;9.212;2023-06-26T04:07:08;7.43;;;6.53;;
15104;SDS011;7653;48.994;9.212;2023-06-26T04:09:34;7.97;;;6.67;;
15104;SDS011;7653;48.994;9.212;2023-06-26T04:11:59;8.10;;;6.50;;
15104;SDS011;7653;48.994;9.212;2023-06-26T04:14:25;8.60;;;6.53;;
15104;SDS011;7653;48.994;9.212;2023-06-26T04:16:51;7.70;;;6.87;;
15104;SDS011;7653;48.994;9.212;2023-06-26T04:19:16;7.93;;;7.07;;
15104;SDS011;7653;48.994;9.212;2023-06-26T04:21:42;7.80;;;6.53;;
15104;SDS011;7653;48.994;9.212;2023-06-26T04:24:07;10.67;;;6.83;;
15104;SDS011;7653;48.994;9.212;2023-06-26T04:26:33;10.87;;;7.13;;
15104;SDS011;7653;48.994;9.212;2023-06-26T04:28:59;10.00;;;7.20;;
15104;SDS011;7653;48.994;9.212;2023-06-26T04:31:25;8.83;;;6.43;;
15104;SDS011;7653;48.994;9.212;2023-06-26T04:33:51;10.60;;;7.07;;
15104;SDS011;7653;48.994;9.212;2023-06-26T04:36:19;11.77;;;6.77;;
15104;SDS011;7653;48.994;9.212;2023-06-26T04:38:46;9.90;;;6.57;;
15104;SDS011;7653;48.994;9.212;2023-06-26T04:41:13;8.73;;;6.50;;
15104;SDS011;7653;48.994;9.212;2023-06-26T04:43:39;8.93;;;6.50;;
15104;SDS011;7653;48.994;9.212;2023-06-26T04:46:05;10.67;;;6.90;;
15104;SDS011;7653;48.994;9.212;2023-06-26T04:48:31;7.57;;;6.30;;
15104;SDS011;7653;48.994;9.212;2023-06-26T04:50:57;7.97;;;6.50;;
15104;SDS011;7653;48.994;9.212;2023-06-26T04:53:23;9.80;;;6.10;;
15104;SDS011;7653;48.994;9.212;2023-06-26T04:55:50;8.57;;;6.03;;
15104;SDS011;7653;48.994;9.212;2023-06-26T04:58:16;11.40;;;6.60;;
15104;SDS011;7653;48.994;9.212;2023-06-26T05:00:42;9.97;;;6.90;;
15104;SDS011;7653;48.994;9.212;2023-06-26T05:03:11;9.03;;;6.10;;
15104;SDS011;7653;48.994;9.212;2023-06-26T05:05:38;10.07;;;6.67;;
15104;SDS011;7653;48.994;9.212;2023-06-26T05:08:13;13.57;;;7.17;;
15104;SDS011;7653;48.994;9.212;2023-06-26T05:10:39;15.77;;;6.83;;
15104;SDS011;7653;48.994;9.212;2023-06-26T05:13:05;12.13;;;6.50;;
15104;SDS011;7653;48.994;9.212;2023-06-26T05:15:31;17.03;;;6.83;;
15104;SDS011;7653;48.994;9.212;2023-06-26T05:17:56;22.13;;;7.23;;
15104;SDS011;7653;48.994;9.212;2023-06-26T05:20:22;21.10;;;7.60;;
15104;SDS011;7653;48.994;9.212;2023-06-26T05:22:47;17.83;;;7.20;;
15104;SDS011;7653;48.994;9.212;2023-06-26T05:25:14;22.37;;;7.53;;
15104;SDS011;7653;48.994;9.212;2023-06-26T05:27:41;26.77;;;7.20;;
15104;SDS011;7653;48.994;9.212;2023-06-26T05:30:07;28.17;;;8.27;;
15104;SDS011;7653;48.994;9.212;2023-06-26T05:32:34;27.47;;;7.60;;
15104;SDS011;7653;48.994;9.212;2023-06-26T05:35:01;24.43;;;7.07;;
15104;SDS011;7653;48.994;9.212;2023-06-26T05:37:29;21.10;;;7.07;;
15104;SDS011;7653;48.994;9.212;2023-06-26T05:39:56;16.57;;;7.27;;
15104;SDS011;7653;48.994;9.212;2023-06-26T05:42:22;14.47;;;6.53;;
15104;SDS011;7653;48.994;9.212;2023-06-26T05:44:48;24.33;;;7.70;;
15104;SDS011;7653;48.994;9.212;2023-06-26T05:47:13;20.27;;;7.87;;
15104;SDS011;7653;48.994;9.212;2023-06-26T05:49:39;20.00;;;7.33;;
15104;SDS011;7653;48.994;9.212;2023-06-26T05:52:05;25.30;;;7.70;;
15104;SDS011;7653;48.994;9.212;2023-06-26T05:54:31;27.90;;;8.07;;
15104;SDS011;7653;48.994;9.212;2023-06-26T05:56:57;27.67;;;8.17;;
15104;SDS011;7653;48.994;9.212;2023-06-26T05:59:24;34.40;;;8.07;;
15104;SDS011;7653;48.994;9.212;2023-06-26T06:01:51;32.93;;;8.20;;
15104;SDS011;7653;48.994;9.212;2023-06-26T06:04:17;22.13;;;8.00;;
15104;SDS011;7653;48.994;9.212;2023-06-26T06:06:43;27.57;;;7.87;;
15104;SDS011;7653;48.994;9.212;2023-06-26T06:09:09;21.23;;;7.60;;
15104;SDS011;7653;48.994;9.212;2023-06-26T06:11:34;19.73;;;8.40;;
15104;SDS011;7653;48.994;9.212;2023-06-26T06:14:00;13.37;;;6.33;;
15104;SDS011;7653;48.994;9.212;2023-06-26T06:16:26;11.10;;;6.83;;
15104;SDS011;7653;48.994;9.212;2023-06-26T06:18:54;7.27;;;5.90;;
15104;SDS011;7653;48.994;9.212;2023-06-26T06:21:19;8.43;;;6.40;;
15104;SDS011;7653;48.994;9.212;2023-06-26T06:23:45;10.27;;;6.30;;
15104;SDS011;7653;48.994;9.212;2023-06-26T06:26:11;8.87;;;6.73;;
15104;SDS011;7653;48.994;9.212;2023-06-26T06:28:37;10.57;;;6.50;;
15104;SDS011;7653;48.994;9.212;2023-06-26T06:31:04;11.03;;;6.73;;
15104;SDS011;7653;48.994;9.212;2023-06-26T06:33:30;12.87;;;7.20;;
15104;SDS011;7653;48.994;9.212;2023-06-26T06:35:56;15.23;;;7.07;;
15104;SDS011;7653;48.994;9.212;2023-06-26T06:38:21;12.13;;;6.40;;
15104;SDS011;7653;48.994;9.212;2023-06-26T06:40:47;16.37;;;6.50;;
15104;SDS011;7653;48.994;9.212;2023-06-26T06:43:13;16.97;;;6.90;;
15104;SDS011;7653;48.994;9.212;2023-06-26T06:45:38;15.37;;;6.77;;
15104;SDS011;7653;48.994;9.212;2023-06-26T06:48:04;15.40;;;6.63;;
15104;SDS011;7653;48.994;9.212;2023-06-26T06:50:30;12.83;;;7.10;;
15104;SDS011;7653;48.994;9.212;2023-06-26T06:52:56;9.63;;;6.60;;
15104;SDS011;7653;48.994;9.212;2023-06-26T06:55:22;7.93;;;6.20;;
15104;SDS011;7653;48.994;9.212;2023-06-26T06:57:48;9.60;;;7.40;;
15104;SDS011;7653;48.994;9.212;2023-06-26T07:00:15;6.60;;;5.80;;
15104;SDS011;7653;48.994;9.212;2023-06-26T07:02:44;8.87;;;6.47;;
15104;SDS011;7653;48.994;9.212;2023-06-26T07:05:11;10.03;;;6.67;;
15104;SDS011;7653;48.994;9.212;2023-06-26T07:07:37;8.57;;;6.10;;
15104;SDS011;7653;48.994;9.212;2023-06-26T07:10:07;9.97;;;6.87;;
15104;SDS011;7653;48.994;9.212;2023-06-26T07:12:33;10.57;;;6.40;;
15104;SDS011;7653;48.994;9.212;2023-06-26T07:15:03;9.90;;;6.63;;
15104;SDS011;7653;48.994;9.212;2023-06-26T07:17:30;7.87;;;5.83;;
15104;SDS011;7653;48.994;9.212;2023-06-26T07:19:56;7.70;;;6.10;;
15104;SDS011;7653;48.994;9.212;2023-06-26T07:22:22;7.97;;;6.37;;
15104;SDS011;7653;48.994;9.212;2023-06-26T07:24:48;12.27;;;6.20;;
15104;SDS011;7653;48.994;9.212;2023-06-26T07:27:14;10.00;;;6.40;;
15104;SDS011;7653;48.994;9.212;2023-06-26T07:29:41;10.03;;;6.60;;
15104;SDS011;7653;48.994;9.212;2023-06-26T07:32:07;14.90;;;6.80;;
15104;SDS011;7653;48.994;9.212;2023-06-26T07:34:33;11.33;;;6.03;;
15104;SDS011;7653;48.994;9.212;2023-06-26T07:36:59;12.23;;;5.80;;
15104;SDS011;7653;48.994;9.212;2023-06-26T07:39:25;11.73;;;6.33;;
15104;SDS011;7653;48.994;9.212;2023-06-26T07:41:51;9.70;;;6.10;;
15104;SDS011;7653;48.994;9.212;2023-06-26T07:44:16;10.80;;;6.70;;
15104;SDS011;7653;48.994;9.212;2023-06-26T07:46:42;8.15;;;6.47;;
15104;SDS011;7653;48.994;9.212;2023-06-26T07:49:08;7.80;;;6.33;;
15104;SDS011;7653;48.994;9.212;2023-06-26T07:51:33;7.90;;;5.70;;
15104;SDS011;7653;48.994;9.212;2023-06-26T07:54:01;9.70;;;5.80;;
15104;SDS011;7653;48.994;9.212;2023-06-26T07:56:27;10.23;;;6.17;;
15104;SDS011;7653;48.994;9.212;2023-06-26T07:58:53;8.37;;;6.40;;
15104;SDS011;7653;48.994;9.212;2023-06-26T08:01:19;7.72;;;6.30;;
15104;SDS011;7653;48.994;9.212;2023-06-26T08:03:44;8.38;;;6.13;;
15104;SDS011;7653;48.994;9.212;2023-06-26T08:06:10;6.30;;;5.70;;
15104;SDS011;7653;48.994;9.212;2023-06-26T08:08:36;8.17;;;5.53;;
15104;SDS011;7653;48.994;9.212;2023-06-26T08:11:01;6.18;;;5.57;;
15104;SDS011;7653;48.994;9.212;2023-06-26T08:13:27;6.72;;;6.03;;
15104;SDS011;7653;48.994;9.212;2023-06-26T08:15:53;7.57;;;5.10;;
15104;SDS011;7653;48.994;9.212;2023-06-26T08:18:19;7.88;;;5.35;;
15104;SDS011;7653;48.994;9.212;2023-06-26T08:20:45;8.05;;;5.82;;
15104;SDS011;7653;48.994;9.212;2023-06-26T08:23:11;7.93;;;5.72;;
15104;SDS011;7653;48.994;9.212;2023-06-26T08:25:36;7.43;;;5.57;;
15104;SDS011;7653;48.994;9.212;2023-06-26T08:28:02;6.13;;;5.53;;
15104;SDS011;7653;48.994;9.212;2023-06-26T08:30:28;5.97;;;5.15;;
15104;SDS011;7653;48.994;9.212;2023-06-26T08:32:54;7.00;;;5.13;;
15104;SDS011;7653;48.994;9.212;2023-06-26T08:35:20;5.85;;;5.13;;
15104;SDS011;7653;48.994;9.212;2023-06-26T08:37:46;6.53;;;5.03;;
15104;SDS011;7653;48.994;9.212;2023-06-26T08:40:12;6.00;;;5.40;;
15104;SDS011;7653;48.994;9.212;2023-06-26T08:42:41;5.32;;;4.82;;
15104;SDS011;7653;48.994;9.212;2023-06-26T08:45:07;6.05;;;5.15;;
15104;SDS011;7653;48.994;9.212;2023-06-26T08:47:33;6.13;;;5.35;;
15104;SDS011;7653;48.994;9.212;2023-06-26T08:50:07;5.20;;;4.70;;
15104;SDS011;7653;48.994;9.212;2023-06-26T08:52:56;7.03;;;4.82;;
15104;SDS011;7653;48.994;9.212;2023-06-26T08:55:29;8.63;;;4.40;;
15104;SDS011;7653;48.994;9.212;2023-06-26T08:57:58;5.22;;;4.40;;
15104;SDS011;7653;48.994;9.212;2023-06-26T09:00:24;5.43;;;4.70;;
15104;SDS011;7653;48.994;9.212;2023-06-26T09:02:50;4.90;;;4.32;;
15104;SDS011;7653;48.994;9.212;2023-06-26T09:05:16;4.75;;;4.20;;
15104;SDS011;7653;48.994;9.212;2023-06-26T09:07:42;5.00;;;4.50;;
15104;SDS011;7653;48.994;9.212;2023-06-26T09:10:08;5.50;;;4.40;;
15104;SDS011;7653;48.994;9.212;2023-06-26T09:12:34;4.75;;;4.35;;
15104;SDS011;7653;48.994;9.212;2023-06-26T09:15:00;4.45;;;4.05;;
15104;SDS011;7653;48.994;9.212;2023-06-26T09:17:33;5.20;;;4.13;;
15104;SDS011;7653;48.994;9.212;2023-06-26T09:20:03;6.28;;;3.70;;
15104;SDS011;7653;48.994;9.212;2023-06-26T09:22:29;5.60;;;2.80;;
15104;SDS011;7653;48.994;9.212;2023-06-26T09:24:58;5.75;;;3.90;;
15104;SDS011;7653;48.994;9.212;2023-06-26T09:27:24;5.70;;;4.00;;
15104;SDS011;7653;48.994;9.212;2023-06-26T09:29:50;4.60;;;4.00;;
15104;SDS011;7653;48.994;9.212;2023-06-26T09:32:16;4.97;;;4.22;;
15104;SDS011;7653;48.994;9.212;2023-06-26T09:34:42;5.22;;;4.05;;
15104;SDS011;7653;48.994;9.212;2023-06-26T09:37:11;4.20;;;3.55;;
15104;SDS011;7653;48.994;9.212;2023-06-26T09:39:38;4.68;;;3.55;;
15104;SDS011;7653;48.994;9.212;2023-06-26T09:42:04;4.72;;;3.60;;
15104;SDS011;7653;48.994;9.212;2023-06-26T09:44:32;7.55;;;3.92;;
15104;SDS011;7653;48.994;9.212;2023-06-26T09:46:58;4.45;;;4.05;;
15104;SDS011;7653;48.994;9.212;2023-06-26T09:49:27;4.95;;;3.28;;
15104;SDS011;7653;48.994;9.212;2023-06-26T09:51:52;4.85;;;4.35;;
15104;SDS011;7653;48.994;9.212;2023-06-26T09:54:18;4.85;;;4.03;;
15104;SDS011;7653;48.994;9.212;2023-06-26T09:56:47;6.35;;;4.75;;
15104;SDS011;7653;48.994;9.212;2023-06-26T09:59:12;6.70;;;4.05;;
15104;SDS011;7653;48.994;9.212;2023-06-26T10:01:41;4.72;;;4.32;;
15104;SDS011;7653;48.994;9.212;2023-06-26T10:04:09;4.93;;;4.25;;
15104;SDS011;7653;48.994;9.212;2023-06-26T10:07:10;4.82;;;4.32;;
15104;SDS011;7653;48.994;9.212;2023-06-26T10:09:29;8.20;;;4.72;;
15104;SDS011;7653;48.994;9.212;2023-06-26T10:14:39;6.18;;;4.43;;
15104;SDS011;7653;48.994;9.212;2023-06-26T10:17:10;6.63;;;4.22;;
15104;SDS011;7653;48.994;9.212;2023-06-26T10:19:39;9.48;;;4.15;;
15104;SDS011;7653;48.994;9.212;2023-06-26T10:22:08;4.18;;;3.63;;
15104;SDS011;7653;48.994;9.212;2023-06-26T10:24:36;6.15;;;4.80;;
15104;SDS011;7653;48.994;9.212;2023-06-26T10:27:08;5.32;;;3.92;;
15104;SDS011;7653;48.994;9.212;2023-06-26T10:29:40;24.77;;;4.40;;
15104;SDS011;7653;48.994;9.212;2023-06-26T10:32:10;6.38;;;3.60;;
15104;SDS011;7653;48.994;9.212;2023-06-26T10:34:37;3.17;;;2.80;;
15104;SDS011;7653;48.994;9.212;2023-06-26T10:37:03;7.78;;;4.97;;
15104;SDS011;7653;48.994;9.212;2023-06-26T10:39:45;4.93;;;4.30;;
15104;SDS011;7653;48.994;9.212;2023-06-26T10:42:15;5.82;;;4.82;;
15104;SDS011;7653;48.994;9.212;2023-06-26T10:44:46;5.25;;;4.75;;
15104;SDS011;7653;48.994;9.212;2023-06-26T10:47:28;6.28;;;4.32;;
15104;SDS011;7653;48.994;9.212;2023-06-26T10:49:54;5.30;;;4.80;;
15104;SDS011;7653;48.994;9.212;2023-06-26T10:52:20;5.65;;;4.75;;
15104;SDS011;7653;48.994;9.212;2023-06-26T10:54:46;5.88;;;5.20;;
15104;SDS011;7653;48.994;9.212;2023-06-26T10:57:11;6.95;;;4.63;;
15104;SDS011;7653;48.994;9.212;2023-06-26T10:59:52;9.23;;;5.20;;
15104;SDS011;7653;48.994;9.212;2023-06-26T11:02:51;5.93;;;5.03;;
15104;SDS011;7653;48.994;9.212;2023-06-26T11:05:24;5.57;;;5.07;;
15104;SDS011;7653;48.994;9.212;2023-06-26T11:08:09;7.90;;;4.53;;
15104;SDS011;7653;48.994;9.212;2023-06-26T11:10:50;2.72;;;2.50;;
15104;SDS011;7653;48.994;9.212;2023-06-26T11:13:18;5.10;;;4.60;;
15104;SDS011;7653;48.994;9.212;2023-06-26T11:15:45;5.35;;;4.30;;
15104;SDS011;7653;48.994;9.212;2023-06-26T11:18:11;5.60;;;4.95;;
15104;SDS011;7653;48.994;9.212;2023-06-26T11:20:38;6.25;;;4.60;;
15104;SDS011;7653;48.994;9.212;2023-06-26T11:23:04;5.65;;;4.60;;
15104;SDS011;7653;48.994;9.212;2023-06-26T11:25:36;4.55;;;3.90;;
15104;SDS011;7653;48.994;9.212;2023-06-26T11:28:02;8.63;;;4.25;;
15104;SDS011;7653;48.994;9.212;2023-06-26T11:30:29;5.88;;;4.57;;
15104;SDS011;7653;48.994;9.212;2023-06-26T11:33:08;5.85;;;4.95;;
15104;SDS011;7653;48.994;9.212;2023-06-26T11:35:35;4.95;;;4.45;;
15104;SDS011;7653;48.994;9.212;2023-06-26T11:38:01;5.82;;;3.70;;
15104;SDS011;7653;48.994;9.212;2023-06-26T11:40:34;6.35;;;4.72;;
15104;SDS011;7653;48.994;9.212;2023-06-26T11:43:00;4.97;;;4.45;;
15104;SDS011;7653;48.994;9.212;2023-06-26T11:45:28;6.20;;;4.95;;
15104;SDS011;7653;48.994;9.212;2023-06-26T11:47:58;4.70;;;4.20;;
15104;SDS011;7653;48.994;9.212;2023-06-26T11:50:25;7.05;;;4.65;;
15104;SDS011;7653;48.994;9.212;2023-06-26T11:52:57;6.22;;;5.10;;
15104;SDS011;7653;48.994;9.212;2023-06-26T11:55:24;5.20;;;4.70;;
15104;SDS011;7653;48.994;9.212;2023-06-26T11:57:52;5.93;;;4.97;;
15104;SDS011;7653;48.994;9.212;2023-06-26T12:00:19;5.72;;;5.20;;
15104;SDS011;7653;48.994;9.212;2023-06-26T12:02:46;6.57;;;5.43;;
15104;SDS011;7653;48.994;9.212;2023-06-26T12:05:15;5.40;;;4.90;;
15104;SDS011;7653;48.994;9.212;2023-06-26T12:07:42;6.25;;;4.90;;
15104;SDS011;7653;48.994;9.212;2023-06-26T12:10:09;6.38;;;5.65;;
15104;SDS011;7653;48.994;9.212;2023-06-26T12:12:36;7.60;;;5.22;;
15104;SDS011;7653;48.994;9.212;2023-06-26T12:15:03;4.43;;;4.00;;
15104;SDS011;7653;48.994;9.212;2023-06-26T12:17:30;9.82;;;5.85;;
15104;SDS011;7653;48.994;9.212;2023-06-26T12:19:56;7.57;;;5.50;;
15104;SDS011;7653;48.994;9.212;2023-06-26T12:22:21;7.57;;;5.63;;
15104;SDS011;7653;48.994;9.212;2023-06-26T12:24:47;6.25;;;5.65;;
15104;SDS011;7653;48.994;9.212;2023-06-26T12:27:14;8.07;;;6.10;;
15104;SDS011;7653;48.994;9.212;2023-06-26T12:29:45;6.68;;;4.70;;
15104;SDS011;7653;48.994;9.212;2023-06-26T12:32:14;3.40;;;3.00;;
15104;SDS011;7653;48.994;9.212;2023-06-26T12:34:40;7.55;;;5.82;;
15104;SDS011;7653;48.994;9.212;2023-06-26T12:37:10;7.68;;;6.03;;
15104;SDS011;7653;48.994;9.212;2023-06-26T12:42:25;7.53;;;4.43;;
15104;SDS011;7653;48.994;9.212;2023-06-26T12:44:52;3.70;;;3.25;;
15104;SDS011;7653;48.994;9.212;2023-06-26T12:47:25;7.10;;;5.50;;
15104;SDS011;7653;48.994;9.212;2023-06-26T12:49:53;5.22;;;4.72;;
15104;SDS011;7653;48.994;9.212;2023-06-26T12:52:19;8.63;;;4.93;;
15104;SDS011;7653;48.994;9.212;2023-06-26T12:54:46;5.10;;;3.80;;
15104;SDS011;7653;48.994;9.212;2023-06-26T12:57:12;7.18;;;4.07;;
15104;SDS011;7653;48.994;9.212;2023-06-26T12:59:42;5.97;;;5.05;;
15104;SDS011;7653;48.994;9.212;2023-06-26T13:02:08;11.65;;;3.20;;
15104;SDS011;7653;48.994;9.212;2023-06-26T13:04:36;7.10;;;5.20;;
15104;SDS011;7653;48.994;9.212;2023-06-26T13:07:01;6.95;;;4.28;;
15104;SDS011;7653;48.994;9.212;2023-06-26T13:09:32;4.70;;;4.25;;
15104;SDS011;7653;48.994;9.212;2023-06-26T13:11:59;4.90;;;3.75;;
15104;SDS011;7653;48.994;9.212;2023-06-26T13:14:24;5.70;;;4.50;;
15104;SDS011;7653;48.994;9.212;2023-06-26T13:16:50;7.80;;;5.00;;
15104;SDS011;7653;48.994;9.212;2023-06-26T13:19:16;5.18;;;4.47;;
15104;SDS011;7653;48.994;9.212;2023-06-26T13:21:42;6.03;;;4.32;;
15104;SDS011;7653;48.994;9.212;2023-06-26T13:24:08;7.95;;;3.83;;
15104;SDS011;7653;48.994;9.212;2023-06-26T13:26:34;4.32;;;3.78;;
15104;SDS011;7653;48.994;9.212;2023-06-26T13:29:00;5.32;;;3.88;;
15104;SDS011;7653;48.994;9.212;2023-06-26T13:31:26;5.63;;;4.57;;
15104;SDS011;7653;48.994;9.212;2023-06-26T13:33:52;4.93;;;3.33;;
15104;SDS011;7653;48.994;9.212;2023-06-26T13:36:18;5.63;;;3.70;;
15104;SDS011;7653;48.994;9.212;2023-06-26T13:38:44;6.07;;;3.58;;
15104;SDS011;7653;48.994;9.212;2023-06-26T13:41:10;4.07;;;3.55;;
15104;SDS011;7653;48.994;9.212;2023-06-26T13:43:36;3.85;;;3.53;;
15104;SDS011;7653;48.994;9.212;2023-06-26T13:46:05;4.15;;;3.63;;
15104;SDS011;7653;48.994;9.212;2023-06-26T13:48:32;4.68;;;3.15;;
15104;SDS011;7653;48.994;9.212;2023-06-26T13:50:58;3.13;;;2.83;;
15104;SDS011;7653;48.994;9.212;2023-06-26T13:53:24;3.10;;;2.60;;
15104;SDS011;7653;48.994;9.212;2023-06-26T13:55:50;3.90;;;2.65;;
15104;SDS011;7653;48.994;9.212;2023-06-26T13:58:15;3.08;;;2.67;;
15104;SDS011;7653;48.994;9.212;2023-06-26T14:00:41;2.63;;;2.08;;
15104;SDS011;7653;48.994;9.212;2023-06-26T14:03:09;3.58;;;2.90;;
15104;SDS011;7653;48.994;9.212;2023-06-26T14:05:35;5.15;;;2.80;;
15104;SDS011;7653;48.994;9.212;2023-06-26T14:08:06;1.40;;;1.30;;
15104;SDS011;7653;48.994;9.212;2023-06-26T14:10:33;3.88;;;2.83;;
15104;SDS011;7653;48.994;9.212;2023-06-26T14:13:03;4.55;;;3.10;;
15104;SDS011;7653;48.994;9.212;2023-06-26T14:15:29;3.88;;;2.50;;
15104;SDS011;7653;48.994;9.212;2023-06-26T14:17:55;2.70;;;2.47;;
15104;SDS011;7653;48.994;9.212;2023-06-26T14:20:21;2.50;;;1.63;;
15104;SDS011;7653;48.994;9.212;2023-06-26T14:22:47;1.48;;;1.38;;
15104;SDS011;7653;48.994;9.212;2023-06-26T14:25:14;2.55;;;2.20;;
15104;SDS011;7653;48.994;9.212;2023-06-26T14:27:40;3.15;;;2.58;;
15104;SDS011;7653;48.994;9.212;2023-06-26T14:30:06;4.45;;;2.40;;
15104;SDS011;7653;48.994;9.212;2023-06-26T14:32:35;4.10;;;2.38;;
15104;SDS011;7653;48.994;9.212;2023-06-26T14:35:01;3.47;;;2.78;;
15104;SDS011;7653;48.994;9.212;2023-06-26T14:37:30;7.15;;;3.00;;
15104;SDS011;7653;48.994;9.212;2023-06-26T14:39:56;4.65;;;2.53;;
15104;SDS011;7653;48.994;9.212;2023-06-26T14:42:23;3.03;;;2.63;;
15104;SDS011;7653;48.994;9.212;2023-06-26T14:44:49;5.07;;;2.72;;
15104;SDS011;7653;48.994;9.212;2023-06-26T14:47:18;3.80;;;2.45;;
15104;SDS011;7653;48.994;9.212;2023-06-26T14:49:44;1.92;;;1.65;;
15104;SDS011;7653;48.994;9.212;2023-06-26T14:52:10;3.38;;;2.17;;
15104;SDS011;7653;48.994;9.212;2023-06-26T14:54:36;3.35;;;2.72;;
15104;SDS011;7653;48.994;9.212;2023-06-26T14:57:02;4.53;;;2.72;;
15104;SDS011;7653;48.994;9.212;2023-06-26T14:59:28;2.95;;;2.03;;
15104;SDS011;7653;48.994;9.212;2023-06-26T15:01:54;5.43;;;3.05;;
15104;SDS011;7653;48.994;9.212;2023-06-26T15:04:20;2.72;;;2.00;;
15104;SDS011;7653;48.994;9.212;2023-06-26T15:06:45;4.22;;;3.05;;
15104;SDS011;7653;48.994;9.212;2023-06-26T15:09:11;3.97;;;2.30;;